Terminal Aerodrome Forecast
Issued by NWS St Louis, MO

Home | Current Version | Previous Version | Graphics & Text | Print | Product List | Glossary On
Versions: 1 2 3 4 5 6 7 8 9 10 11 12 13 14 15 16 17 18 19 20 21 22 23 24 25 26 27 28
000
FTUS43 KLSX 282054 AAA
TAFSTL
TAF AMD
KSTL 282054Z 2821/2924 24005KT P6SM VCTS SCT040CB BKN250
     FM290200 17004KT P6SM SCT250
     FM291000 23005KT P6SM BKN250
     FM291800 32009KT P6SM VCTS BKN040CB=

USA.gov is the U.S. government's official web portal to all federal, state and local government web resources and services.